Latest Coastal Weather Observations for Onslow Airport

IDW60701

Issued at 1:33 am WST Thursday 3 September 2026 (issued every 10 minutes, with the page automatically refreshed every 10 minutes)

About coastal observations | Map of coastal stations | Coastal observations for WA | Marine services | Other Formats
Station Details ID: 005017 Name: ONSLOW AIRPORT Lat: -21.67 Lon: 115.11 Height: 10.5 m
Data from the previous 72 hours. | See also: Recent months at Onslow Airport
Date/Time
WST
Wind Sea
Height
m
Swell Vis
km
Cloud Weather Temp
°C
Press
MSL
hPa
Rain since
9am
mm
Dir  Spd
kts
Gust
kts
Height
m
Period
s
Dir
03/01:30am S 11 14 - - - - 10 Clear - 21.7 1016.6 0.0
03/01:00am SSW 12 15 - - - - 10 - - 21.6 1016.9 0.0
03/12:30am SW 9 11 - - - - 10 - - 21.5 1016.9 0.0
03/12:00am SW 8 11 - - - - 10 - - 21.9 1017.1 0.0
 
Date/Time
WST
Wind Sea
Height
m
Swell Vis
km
Cloud Weather Temp
°C
Press
MSL
hPa
Rain since
9am
mm
Dir  Spd
kts
Gust
kts
Height
m
Period
s
Dir
02/11:30pm SSW 9 10 - - - - 10 - - 22.5 1017.0 0.0
02/11:00pm SSW 10 13 - - - - 10 - - 23.4 1016.9 0.0
02/10:30pm SSW 9 10 - - - - 10 - - 22.9 1017.0 0.0
02/10:00pm WSW 8 9 - - - - 10 - - 22.3 1017.0 0.0
02/09:30pm W 8 9 - - - - 10 - - 21.8 1016.9 0.0
02/09:00pm W 9 11 - - - - 10 - - 22.5 1016.8 0.0
02/08:30pm W 10 13 - - - - 10 - - 22.6 1016.6 0.0
02/08:00pm WNW 11 13 - - - - 10 - - 22.9 1016.3 0.0
02/07:30pm WNW 11 14 - - - - 10 - - 23.2 1016.0 0.0
02/07:00pm WNW 12 15 - - - - 10 - - 23.2 1015.9 0.0
02/06:30pm WNW 13 15 - - - - 10 - - 23.4 1015.8 0.0
02/06:00pm W 14 18 - - - - 10 - - 24.0 1015.6 0.0
02/05:30pm WNW 15 18 - - - - 10 - - 25.2 1015.4 0.0
02/05:00pm WNW 15 20 - - - - 10 - - 26.9 1015.2 0.0
02/04:30pm WNW 16 19 - - - - 10 - - 27.9 1015.0 0.0
02/04:00pm WNW 18 22 - - - - 10 - - 27.9 1014.9 0.0
02/03:30pm WNW 16 20 - - - - 10 - - 29.2 1014.9 0.0
02/03:00pm WNW 16 20 - - - - 10 - - 29.9 1015.2 0.0
02/02:30pm WNW 15 20 - - - - 10 - - 30.3 1015.4 0.0
02/02:00pm WNW 14 18 - - - - 10 - - 30.9 1015.7 0.0
02/01:30pm WNW 13 16 - - - - 10 - - 30.9 1015.9 0.0
02/01:00pm W 14 17 - - - - 10 - - 31.1 1016.2 0.0
02/12:30pm WNW 11 14 - - - - 10 - - 29.4 1017.0 0.0
02/12:00pm WNW 8 11 - - - - 10 - - 31.0 1017.6 0.0
02/11:30am NNW 6 9 - - - - 10 - - 31.2 1018.0 0.0
02/11:00am SSE 5 8 - - - - 10 - - 31.1 1018.5 0.0
02/10:30am SSW 6 9 - - - - 10 - - 30.2 1018.8 0.0
02/10:00am SE 5 7 - - - - 10 - - 28.3 1019.0 0.0
02/09:30am SE 7 8 - - - - 10 - - 27.4 1019.1 0.0
02/09:00am SSE 7 8 - - - - 10 - - 25.1 1019.1 0.0
02/08:30am S 7 9 - - - - 10 - - 22.9 1019.1 0.0
02/08:00am SSW 8 11 - - - - 10 - - 20.8 1019.1 0.0
02/07:30am SSW 9 12 - - - - 10 - - 19.4 1018.9 0.0
02/07:00am SSW 8 11 - - - - 10 - - 18.3 1018.7 0.0
02/06:30am SW 7 9 - - - - 10 - - 17.6 1018.6 0.0
02/06:00am SW 8 11 - - - - 10 - - 18.2 1018.5 0.0
02/05:30am SW 8 10 - - - - 10 - - 18.0 1018.3 0.0
02/05:00am SW 7 8 - - - - 10 - - 17.2 1018.2 0.0
02/04:30am WSW 7 9 - - - - 10 - - 17.7 1018.2 0.0
02/04:00am WSW 7 9 - - - - 10 - - 18.4 1018.2 0.0
02/03:30am SSW 10 11 - - - - 10 - - 19.3 1018.0 0.0
02/03:00am SSW 10 12 - - - - 10 - - 19.7 1018.1 0.0
02/02:30am SW 10 14 - - - - 10 - - 20.1 1018.2 0.0
02/02:00am SSW 12 15 - - - - 10 - - 20.4 1018.4 0.0
02/01:30am SSW 11 15 - - - - 10 - - 20.5 1018.5 0.0
02/01:00am SSW 11 14 - - - - 10 - - 20.8 1018.7 0.0
02/12:30am SSW 11 14 - - - - 10 - - 21.0 1018.9 0.0
02/12:00am SW 11 13 - - - - 10 - - 21.0 1019.1 0.0
 
Date/Time
WST
Wind Sea
Height
m
Swell Vis
km
Cloud Weather Temp
°C
Press
MSL
hPa
Rain since
9am
mm
Dir  Spd
kts
Gust
kts
Height
m
Period
s
Dir
01/11:30pm SW 10 13 - - - - 10 - - 21.3 1019.1 0.0
01/11:00pm SW 10 14 - - - - 10 - - 21.7 1019.2 0.0
01/10:30pm SW 11 15 - - - - 10 - - 22.1 1019.2 0.0
01/10:00pm SW 12 16 - - - - 10 - - 22.6 1019.2 0.0
01/09:30pm WSW 12 16 - - - - 10 - - 23.1 1019.2 0.0
01/09:00pm WSW 9 12 - - - - 10 - - 22.9 1019.1 0.0
01/08:30pm WSW 9 12 - - - - 10 - - 23.0 1018.9 0.0
01/08:00pm W 11 13 - - - - 10 - - 22.9 1018.7 0.0
01/07:30pm W 12 15 - - - - 10 - - 23.1 1018.3 0.0
01/07:00pm W 12 14 - - - - 10 - - 23.2 1018.4 0.0
01/06:30pm W 12 15 - - - - 10 - - 23.7 1018.2 0.0
01/06:00pm W 13 17 - - - - 10 - - 24.1 1018.0 0.0
01/05:30pm W 15 18 - - - - 10 - - 25.4 1017.8 0.0
01/05:00pm W 15 20 - - - - 10 - - 26.3 1017.5 0.0
01/04:30pm WNW 16 20 - - - - 10 - - 27.6 1017.2 0.0
01/04:00pm WNW 17 21 - - - - 10 - - 28.6 1017.1 0.0
01/03:30pm WNW 15 18 - - - - 10 - - 29.0 1017.1 0.0
01/03:00pm WNW 15 17 - - - - 10 - - 29.1 1017.2 0.0
01/02:30pm WNW 15 17 - - - - 10 - - 29.7 1017.3 0.0
01/02:00pm WNW 13 16 - - - - 10 - - 29.9 1017.6 0.0
01/01:30pm WNW 13 16 - - - - 10 - - 30.0 1017.8 0.0
01/01:00pm NW 10 13 - - - - 10 - - 30.3 1018.2 0.0
01/12:30pm NNW 9 11 - - - - 10 - - 30.8 1018.5 0.0
01/12:00pm SSE 6 9 - - - - 10 - - 31.5 1018.9 0.0
01/11:30am S 6 9 - - - - 10 - - 30.1 1019.3 0.0
01/11:00am S 7 10 - - - - 10 - - 30.0 1019.7 0.0
01/10:30am S 8 11 - - - - 10 - - 28.9 1020.1 0.0
01/10:00am S 9 12 - - - - 10 - - 27.8 1020.5 0.0
01/09:30am SSE 9 12 - - - - 10 - - 26.4 1020.7 0.0
01/09:00am S 10 13 - - - - 10 - - 24.6 1020.7 0.0
01/08:30am SSE 10 13 - - - - 10 - - 23.0 1020.7 0.0
01/08:00am S 11 13 - - - - 10 - - 21.4 1020.7 0.0
01/07:30am S 10 13 - - - - 10 - - 19.2 1020.6 0.0
01/07:00am SSW 11 14 - - - - 10 - - 18.1 1020.4 0.0
01/06:30am SSW 10 13 - - - - 10 - - 17.7 1020.2 0.0
01/06:00am SSW 10 12 - - - - 10 - - 18.0 1020.0 0.0
01/05:30am SSW 9 11 - - - - 10 - - 17.9 1019.8 0.0
01/05:00am SSW 9 11 - - - - 10 - - 18.0 1019.8 0.0
01/04:30am SSW 9 11 - - - - 10 - - 18.2 1019.7 0.0
01/04:00am SSW 9 11 - - - - 10 - - 18.4 1019.7 0.0
01/03:30am SSW 10 13 - - - - 10 - - 18.9 1019.8 0.0
01/03:00am SSW 9 12 - - - - 10 - - 19.2 1020.0 0.0
01/02:30am SSW 9 11 - - - - 10 - - 19.2 1020.1 0.0
01/02:00am SSW 9 11 - - - - 10 - - 19.5 1020.2 0.0
01/01:30am SSW 9 11 - - - - 10 - - 19.8 1020.3 0.0
01/01:00am SW 9 12 - - - - 10 - - 20.1 1020.5 0.0
01/12:30am SSW 10 13 - - - - 10 - - 20.5 1020.5 0.0
01/12:00am SSW 11 15 - - - - 10 - - 20.9 1020.6 0.0
 
Date/Time
WST
Wind Sea
Height
m
Swell Vis
km
Cloud Weather Temp
°C
Press
MSL
hPa
Rain since
9am
mm
Dir  Spd
kts
Gust
kts
Height
m
Period
s
Dir
31/11:30pm SW 9 13 - - - - 10 - - 21.3 1020.7 0.0
31/11:00pm SW 11 14 - - - - 10 - - 21.6 1020.9 0.0
31/10:30pm SW 12 15 - - - - 10 - - 22.2 1020.9 0.0
31/10:00pm SW 12 16 - - - - 10 - - 22.6 1020.9 0.0
31/09:30pm SW 12 15 - - - - 10 - - 22.9 1020.9 0.0
31/09:00pm WSW 12 15 - - - - 10 - - 23.2 1020.8 0.0
31/08:30pm WSW 9 12 - - - - 10 - - 22.8 1020.7 0.0
31/08:00pm W 9 11 - - - - 10 - - 22.6 1020.4 0.0
31/07:30pm W 11 13 - - - - 10 - - 22.8 1020.1 0.0
31/07:00pm W 11 15 - - - - 10 - - 22.8 1019.9 0.0
31/06:30pm W 12 15 - - - - 10 - - 23.1 1019.7 0.0
31/06:00pm W 13 17 - - - - 10 - - 23.8 1019.4 0.0
31/05:30pm W 12 16 - - - - 10 - - 25.8 1019.0 0.0
31/05:00pm W 14 17 - - - - 10 - - 26.9 1018.7 0.0
31/04:30pm WNW 15 17 - - - - 10 - - 27.4 1018.6 0.0
31/04:00pm WNW 15 17 - - - - 10 - - 27.6 1018.6 0.0
31/03:30pm WNW 15 17 - - - - 10 - - 28.0 1018.6 0.0
31/03:00pm WNW 13 16 - - - - 10 - - 28.2 1018.7 0.0
31/02:30pm WNW 12 14 - - - - 10 - - 28.2 1018.7 0.0
31/02:00pm WNW 14 17 - - - - 10 - - 27.9 1018.9 0.0
31/01:30pm WNW 12 15 - - - - 10 - - 28.2 1019.1 0.0
31/01:00pm NW 10 13 - - - - 10 - - 28.6 1019.4 0.0
31/12:30pm NW 8 11 - - - - 10 - - 29.1 1019.7 0.0
31/12:00pm NW 9 11 - - - - 10 - - 27.5 1020.1 0.0
31/11:30am NW 9 12 - - - - 10 - - 27.3 1020.3 0.0
31/11:00am SSE 5 8 - - - - 10 - - 28.6 1020.4 0.0
31/10:30am SE 5 7 - - - - 10 - - 28.6 1020.6 0.0
31/10:00am SE 5 7 - - - - 10 - - 27.1 1020.9 0.0
31/09:30am SSE 6 7 - - - - 10 - - 25.2 1020.8 0.0
31/09:00am S 6 8 - - - - 10 - - 23.9 1020.8 0.0
31/08:30am SSW 7 9 - - - - 10 - - 21.9 1020.7 0.0
31/08:00am SSW 8 9 - - - - 10 - - 20.3 1020.5 0.0
31/07:30am SSW 7 9 - - - - 10 - - 19.2 1020.3 0.0
31/07:00am SW 7 8 - - - - 10 - - 17.8 1019.9 0.0
31/06:30am SSW 7 8 - - - - 10 - - 17.4 1019.6 0.0
31/06:00am SSW 7 8 - - - - 10 - - 17.5 1019.3 0.0
31/05:30am SSW 7 8 - - - - 10 - - 17.7 1019.2 0.0
31/05:00am SSW 8 10 - - - - 10 - - 18.1 1019.1 0.0
31/04:30am SSW 7 8 - - - - 10 - - 18.0 1019.1 0.0
31/04:00am SSW 6 7 - - - - 10 - - 17.9 1019.1 0.0
31/03:30am SSW 5 6 - - - - 10 - - 17.9 1019.2 0.0
31/03:00am SSW 5 6 - - - - 10 - - 18.3 1019.3 0.0
31/02:30am SSW 5 6 - - - - 10 - - 18.6 1019.1 0.0
31/02:00am SSW 5 6 - - - - 10 - - 18.9 1019.4 0.0

Other formats

Comma delimited format used in spreadsheet applications
http://www.bom.gov.au/fwo/IDW60701/IDW60701.95305.axf

JavaScript Object Notation format (JSON) in row-major order
http://www.bom.gov.au/fwo/IDW60701/IDW60701.95305.json

Data quality

Most of these data are generated automatically and are frequently updated. Quality checks on data are not normally performed. It is possible for incorrect values to appear. Refer to information at About Latest Weather Observations and please check the disclaimer before using these data.